sensor_id;sensor_type;location;lat;lon;timestamp;noise_LAeq;noise_LA_min;noise_LA_max;noise_LA01;noise_LA95
45109;Laerm;30447;48.742;8.972;2024-02-26T00:00:07;37.43;33.44;39.78;;
45109;Laerm;30447;48.742;8.972;2024-02-26T00:02:38;37.22;32.35;40.03;;
45109;Laerm;30447;48.742;8.972;2024-02-26T00:05:07;37.33;33.90;40.03;;
45109;Laerm;30447;48.742;8.972;2024-02-26T00:07:34;37.54;32.35;43.93;;
45109;Laerm;30447;48.742;8.972;2024-02-26T00:10:01;37.49;32.93;40.62;;
45109;Laerm;30447;48.742;8.972;2024-02-26T00:12:27;37.17;32.35;39.81;;
45109;Laerm;30447;48.742;8.972;2024-02-26T00:14:54;37.08;32.93;39.81;;
45109;Laerm;30447;48.742;8.972;2024-02-26T00:17:22;37.13;32.93;40.13;;
45109;Laerm;30447;48.742;8.972;2024-02-26T00:19:49;37.49;32.35;40.23;;
45109;Laerm;30447;48.742;8.972;2024-02-26T00:22:16;37.60;33.44;40.71;;
45109;Laerm;30447;48.742;8.972;2024-02-26T00:24:42;37.39;32.93;40.23;;
45109;Laerm;30447;48.742;8.972;2024-02-26T00:27:09;37.42;33.44;40.13;;
45109;Laerm;30447;48.742;8.972;2024-02-26T00:29:35;37.18;32.93;45.39;;
45109;Laerm;30447;48.742;8.972;2024-02-26T00:32:02;37.36;32.58;39.89;;
45109;Laerm;30447;48.742;8.972;2024-02-26T00:34:29;37.34;32.93;40.53;;
45109;Laerm;30447;48.742;8.972;2024-02-26T00:36:55;37.56;33.44;40.23;;
45109;Laerm;30447;48.742;8.972;2024-02-26T00:39:22;37.28;31.68;40.13;;
45109;Laerm;30447;48.742;8.972;2024-02-26T00:41:49;37.19;32.35;39.92;;
45109;Laerm;30447;48.742;8.972;2024-02-26T00:44:15;37.70;33.44;45.17;;
45109;Laerm;30447;48.742;8.972;2024-02-26T00:46:42;37.76;33.44;41.96;;
45109;Laerm;30447;48.742;8.972;2024-02-26T00:49:08;37.43;33.44;40.43;;
45109;Laerm;30447;48.742;8.972;2024-02-26T00:51:35;37.40;32.93;40.80;;
45109;Laerm;30447;48.742;8.972;2024-02-26T00:54:02;37.43;32.93;40.89;;
45109;Laerm;30447;48.742;8.972;2024-02-26T00:56:28;37.82;33.90;40.98;;
45109;Laerm;30447;48.742;8.972;2024-02-26T00:58:55;37.48;32.93;40.23;;
45109;Laerm;30447;48.742;8.972;2024-02-26T01:01:21;37.47;32.35;40.03;;
45109;Laerm;30447;48.742;8.972;2024-02-26T01:03:48;37.60;32.35;40.23;;
45109;Laerm;30447;48.742;8.972;2024-02-26T01:06:15;37.41;33.44;40.03;;
45109;Laerm;30447;48.742;8.972;2024-02-26T01:08:41;37.97;33.44;40.89;;
45109;Laerm;30447;48.742;8.972;2024-02-26T01:11:08;37.80;33.90;40.53;;
45109;Laerm;30447;48.742;8.972;2024-02-26T01:13:35;37.39;33.44;40.03;;
45109;Laerm;30447;48.742;8.972;2024-02-26T01:16:01;37.19;32.35;39.58;;
45109;Laerm;30447;48.742;8.972;2024-02-26T01:18:28;37.30;33.55;39.92;;
45109;Laerm;30447;48.742;8.972;2024-02-26T01:20:55;37.59;33.44;40.53;;
45109;Laerm;30447;48.742;8.972;2024-02-26T01:23:21;37.58;33.44;40.80;;
45109;Laerm;30447;48.742;8.972;2024-02-26T01:25:48;37.41;32.35;40.80;;
45109;Laerm;30447;48.742;8.972;2024-02-26T01:28:15;37.40;32.93;43.34;;
45109;Laerm;30447;48.742;8.972;2024-02-26T01:30:42;37.31;32.93;41.89;;
45109;Laerm;30447;48.742;8.972;2024-02-26T01:33:08;37.36;33.44;42.98;;
45109;Laerm;30447;48.742;8.972;2024-02-26T01:35:35;37.53;32.93;40.89;;
45109;Laerm;30447;48.742;8.972;2024-02-26T01:38:02;37.91;32.93;44.19;;
45109;Laerm;30447;48.742;8.972;2024-02-26T01:40:29;37.65;33.90;40.13;;
45109;Laerm;30447;48.742;8.972;2024-02-26T01:42:56;37.53;33.90;40.13;;
45109;Laerm;30447;48.742;8.972;2024-02-26T01:45:23;37.34;32.35;40.89;;
45109;Laerm;30447;48.742;8.972;2024-02-26T01:47:51;37.54;33.90;41.89;;
45109;Laerm;30447;48.742;8.972;2024-02-26T01:50:19;37.27;33.44;40.43;;
45109;Laerm;30447;48.742;8.972;2024-02-26T01:52:49;37.44;33.44;40.62;;
45109;Laerm;30447;48.742;8.972;2024-02-26T01:55:18;37.97;32.93;49.44;;
45109;Laerm;30447;48.742;8.972;2024-02-26T01:57:47;37.81;34.31;41.75;;
45109;Laerm;30447;48.742;8.972;2024-02-26T02:00:17;37.45;33.44;39.92;;
45109;Laerm;30447;48.742;8.972;2024-02-26T02:02:44;37.26;32.93;39.81;;
45109;Laerm;30447;48.742;8.972;2024-02-26T02:05:15;37.11;32.93;39.70;;
45109;Laerm;30447;48.742;8.972;2024-02-26T02:07:44;38.05;34.31;41.53;;
45109;Laerm;30447;48.742;8.972;2024-02-26T02:10:11;37.81;32.93;41.75;;
45109;Laerm;30447;48.742;8.972;2024-02-26T02:12:37;37.95;32.93;42.35;;
45109;Laerm;30447;48.742;8.972;2024-02-26T02:15:07;38.02;34.31;43.34;;
45109;Laerm;30447;48.742;8.972;2024-02-26T02:17:34;37.91;34.69;40.53;;
45109;Laerm;30447;48.742;8.972;2024-02-26T02:20:00;37.68;34.31;40.13;;
45109;Laerm;30447;48.742;8.972;2024-02-26T02:22:28;37.68;33.90;41.61;;
45109;Laerm;30447;48.742;8.972;2024-02-26T02:24:54;37.50;32.93;41.46;;
45109;Laerm;30447;48.742;8.972;2024-02-26T02:27:21;37.40;33.44;39.70;;
45109;Laerm;30447;48.742;8.972;2024-02-26T02:29:48;37.37;32.93;39.81;;
45109;Laerm;30447;48.742;8.972;2024-02-26T02:32:17;37.42;33.44;40.80;;
45109;Laerm;30447;48.742;8.972;2024-02-26T02:34:45;37.72;33.44;40.89;;
45109;Laerm;30447;48.742;8.972;2024-02-26T02:37:12;37.62;34.31;40.71;;
45109;Laerm;30447;48.742;8.972;2024-02-26T02:39:39;37.96;33.90;41.06;;
45109;Laerm;30447;48.742;8.972;2024-02-26T02:42:05;37.65;32.93;40.80;;
45109;Laerm;30447;48.742;8.972;2024-02-26T02:44:32;37.74;32.93;40.03;;
45109;Laerm;30447;48.742;8.972;2024-02-26T02:46:59;37.57;33.90;40.53;;
45109;Laerm;30447;48.742;8.972;2024-02-26T02:49:25;37.27;33.44;40.03;;
45109;Laerm;30447;48.742;8.972;2024-02-26T02:51:52;37.35;32.93;40.89;;
45109;Laerm;30447;48.742;8.972;2024-02-26T02:54:20;37.47;33.90;40.23;;
45109;Laerm;30447;48.742;8.972;2024-02-26T02:56:47;37.34;32.35;40.13;;
45109;Laerm;30447;48.742;8.972;2024-02-26T02:59:13;37.35;33.44;39.70;;
45109;Laerm;30447;48.742;8.972;2024-02-26T03:01:40;37.48;32.93;40.13;;
45109;Laerm;30447;48.742;8.972;2024-02-26T03:04:07;37.40;33.44;43.04;;
45109;Laerm;30447;48.742;8.972;2024-02-26T03:06:33;37.32;33.44;41.61;;
45109;Laerm;30447;48.742;8.972;2024-02-26T03:09:00;37.57;33.55;40.23;;
45109;Laerm;30447;48.742;8.972;2024-02-26T03:11:27;37.77;33.44;40.43;;
45109;Laerm;30447;48.742;8.972;2024-02-26T03:13:53;38.02;34.31;44.97;;
45109;Laerm;30447;48.742;8.972;2024-02-26T03:16:20;37.51;33.90;40.13;;
45109;Laerm;30447;48.742;8.972;2024-02-26T03:18:47;37.36;32.35;40.03;;
45109;Laerm;30447;48.742;8.972;2024-02-26T03:21:13;37.45;32.93;41.14;;
45109;Laerm;30447;48.742;8.972;2024-02-26T03:23:40;37.99;34.31;43.63;;
45109;Laerm;30447;48.742;8.972;2024-02-26T03:26:06;37.89;34.31;40.33;;
45109;Laerm;30447;48.742;8.972;2024-02-26T03:28:35;37.63;32.93;39.92;;
45109;Laerm;30447;48.742;8.972;2024-02-26T03:31:01;38.00;34.31;41.06;;
45109;Laerm;30447;48.742;8.972;2024-02-26T03:33:28;37.90;33.90;40.71;;
45109;Laerm;30447;48.742;8.972;2024-02-26T03:35:55;37.75;32.93;40.43;;
45109;Laerm;30447;48.742;8.972;2024-02-26T03:38:22;37.63;33.90;40.23;;
45109;Laerm;30447;48.742;8.972;2024-02-26T03:40:48;37.59;33.44;40.53;;
45109;Laerm;30447;48.742;8.972;2024-02-26T03:43:16;37.60;32.93;41.53;;
45109;Laerm;30447;48.742;8.972;2024-02-26T03:45:43;37.61;33.44;40.45;;
45109;Laerm;30447;48.742;8.972;2024-02-26T03:48:09;37.65;33.44;40.53;;
45109;Laerm;30447;48.742;8.972;2024-02-26T03:50:36;37.69;32.93;43.04;;
45109;Laerm;30447;48.742;8.972;2024-02-26T03:53:03;38.60;33.44;42.93;;
45109;Laerm;30447;48.742;8.972;2024-02-26T03:55:29;39.20;33.44;44.03;;
45109;Laerm;30447;48.742;8.972;2024-02-26T03:57:56;38.89;34.69;42.88;;
45109;Laerm;30447;48.742;8.972;2024-02-26T04:00:23;39.77;34.31;60.35;;
45109;Laerm;30447;48.742;8.972;2024-02-26T04:02:50;38.30;33.90;42.35;;
45109;Laerm;30447;48.742;8.972;2024-02-26T04:05:16;37.84;33.44;40.71;;
45109;Laerm;30447;48.742;8.972;2024-02-26T04:07:43;38.30;34.31;41.89;;
45109;Laerm;30447;48.742;8.972;2024-02-26T04:10:11;38.75;34.31;41.96;;
45109;Laerm;30447;48.742;8.972;2024-02-26T04:12:39;38.11;33.90;42.76;;
45109;Laerm;30447;48.742;8.972;2024-02-26T04:15:10;38.17;33.90;40.80;;
45109;Laerm;30447;48.742;8.972;2024-02-26T04:17:37;38.20;34.69;41.22;;
45109;Laerm;30447;48.742;8.972;2024-02-26T04:20:06;38.41;34.31;43.19;;
45109;Laerm;30447;48.742;8.972;2024-02-26T04:22:33;38.74;34.69;42.03;;
45109;Laerm;30447;48.742;8.972;2024-02-26T04:24:59;38.58;34.31;41.46;;
45109;Laerm;30447;48.742;8.972;2024-02-26T04:27:26;38.93;35.04;41.53;;
45109;Laerm;30447;48.742;8.972;2024-02-26T04:29:52;39.12;34.69;43.04;;
45109;Laerm;30447;48.742;8.972;2024-02-26T04:32:19;40.10;35.04;56.43;;
45109;Laerm;30447;48.742;8.972;2024-02-26T04:34:46;38.64;35.04;41.14;;
45109;Laerm;30447;48.742;8.972;2024-02-26T04:37:12;38.78;35.36;44.80;;
45109;Laerm;30447;48.742;8.972;2024-02-26T04:39:39;38.61;35.01;41.82;;
45109;Laerm;30447;48.742;8.972;2024-02-26T04:42:05;39.28;33.90;50.77;;
45109;Laerm;30447;48.742;8.972;2024-02-26T04:44:32;41.36;36.20;52.62;;
45109;Laerm;30447;48.742;8.972;2024-02-26T04:46:59;40.73;35.36;52.48;;
45109;Laerm;30447;48.742;8.972;2024-02-26T04:49:27;40.98;35.66;53.79;;
45109;Laerm;30447;48.742;8.972;2024-02-26T04:51:54;41.02;34.69;56.69;;
45109;Laerm;30447;48.742;8.972;2024-02-26T04:54:21;39.63;34.31;53.88;;
45109;Laerm;30447;48.742;8.972;2024-02-26T04:56:48;39.14;35.36;47.18;;
45109;Laerm;30447;48.742;8.972;2024-02-26T04:59:14;40.22;35.66;49.92;;
45109;Laerm;30447;48.742;8.972;2024-02-26T05:01:41;39.10;35.94;42.22;;
45109;Laerm;30447;48.742;8.972;2024-02-26T05:04:07;39.65;35.66;42.22;;
45109;Laerm;30447;48.742;8.972;2024-02-26T05:06:36;39.33;36.20;42.59;;
45109;Laerm;30447;48.742;8.972;2024-02-26T05:09:04;39.25;36.20;43.09;;
45109;Laerm;30447;48.742;8.972;2024-02-26T05:11:30;39.17;35.94;42.29;;
45109;Laerm;30447;48.742;8.972;2024-02-26T05:13:57;38.89;35.04;46.07;;
45109;Laerm;30447;48.742;8.972;2024-02-26T05:16:24;38.63;34.31;41.22;;
45109;Laerm;30447;48.742;8.972;2024-02-26T05:18:53;38.65;35.04;41.89;;
45109;Laerm;30447;48.742;8.972;2024-02-26T05:21:19;39.13;35.04;44.23;;
45109;Laerm;30447;48.742;8.972;2024-02-26T05:23:46;40.43;35.36;45.27;;
45109;Laerm;30447;48.742;8.972;2024-02-26T05:26:20;39.21;34.69;44.31;;
45109;Laerm;30447;48.742;8.972;2024-02-26T05:28:47;38.85;35.36;46.25;;
45109;Laerm;30447;48.742;8.972;2024-02-26T05:31:16;38.81;35.36;41.61;;
45109;Laerm;30447;48.742;8.972;2024-02-26T05:33:43;39.18;35.66;42.98;;
45109;Laerm;30447;48.742;8.972;2024-02-26T05:36:09;39.55;35.94;42.65;;
45109;Laerm;30447;48.742;8.972;2024-02-26T05:38:36;39.94;36.91;44.62;;
45109;Laerm;30447;48.742;8.972;2024-02-26T05:41:03;41.05;36.77;47.79;;
45109;Laerm;30447;48.742;8.972;2024-02-26T05:43:31;41.32;38.05;49.66;;
45109;Laerm;30447;48.742;8.972;2024-02-26T05:45:57;41.33;38.21;48.63;;
45109;Laerm;30447;48.742;8.972;2024-02-26T05:48:24;40.95;37.12;55.24;;
45109;Laerm;30447;48.742;8.972;2024-02-26T05:50:51;41.29;36.91;52.45;;
45109;Laerm;30447;48.742;8.972;2024-02-26T05:53:18;45.35;37.12;57.46;;
45109;Laerm;30447;48.742;8.972;2024-02-26T05:55:44;40.36;36.20;47.46;;
45109;Laerm;30447;48.742;8.972;2024-02-26T05:58:11;40.44;35.94;55.60;;
45109;Laerm;30447;48.742;8.972;2024-02-26T06:00:37;41.33;37.12;59.39;;
45109;Laerm;30447;48.742;8.972;2024-02-26T06:03:04;40.49;36.20;57.60;;
45109;Laerm;30447;48.742;8.972;2024-02-26T06:05:31;39.97;36.20;56.12;;
45109;Laerm;30447;48.742;8.972;2024-02-26T06:07:57;40.81;36.69;47.20;;
45109;Laerm;30447;48.742;8.972;2024-02-26T06:10:24;41.04;36.69;53.02;;
45109;Laerm;30447;48.742;8.972;2024-02-26T06:12:51;41.09;37.52;48.99;;
45109;Laerm;30447;48.742;8.972;2024-02-26T06:15:17;40.85;36.69;59.50;;
45109;Laerm;30447;48.742;8.972;2024-02-26T06:17:44;42.38;37.52;55.26;;
45109;Laerm;30447;48.742;8.972;2024-02-26T06:20:11;44.97;37.88;52.54;;
45109;Laerm;30447;48.742;8.972;2024-02-26T06:22:42;45.39;37.35;53.90;;
45109;Laerm;30447;48.742;8.972;2024-02-26T06:25:09;45.31;38.37;55.02;;
45109;Laerm;30447;48.742;8.972;2024-02-26T06:27:35;41.92;38.52;51.86;;
45109;Laerm;30447;48.742;8.972;2024-02-26T06:30:02;43.77;38.37;53.70;;
45109;Laerm;30447;48.742;8.972;2024-02-26T06:32:29;47.70;40.13;54.51;;
45109;Laerm;30447;48.742;8.972;2024-02-26T06:34:56;46.02;38.05;59.62;;
45109;Laerm;30447;48.742;8.972;2024-02-26T06:37:23;46.36;37.70;60.89;;
45109;Laerm;30447;48.742;8.972;2024-02-26T06:39:49;40.38;36.69;56.12;;
45109;Laerm;30447;48.742;8.972;2024-02-26T06:42:18;41.74;38.21;51.45;;
45109;Laerm;30447;48.742;8.972;2024-02-26T06:44:44;41.62;38.67;53.02;;
45109;Laerm;30447;48.742;8.972;2024-02-26T06:47:11;41.17;38.05;52.72;;
45109;Laerm;30447;48.742;8.972;2024-02-26T06:49:38;41.40;37.12;48.39;;
45109;Laerm;30447;48.742;8.972;2024-02-26T06:52:05;43.97;39.08;51.59;;
45109;Laerm;30447;48.742;8.972;2024-02-26T06:54:32;45.98;41.53;58.23;;
45109;Laerm;30447;48.742;8.972;2024-02-26T06:56:59;47.65;43.09;55.00;;
45109;Laerm;30447;48.742;8.972;2024-02-26T06:59:26;46.01;41.46;56.69;;
45109;Laerm;30447;48.742;8.972;2024-02-26T07:01:53;45.54;41.46;53.42;;
45109;Laerm;30447;48.742;8.972;2024-02-26T07:04:21;45.93;41.82;52.83;;
45109;Laerm;30447;48.742;8.972;2024-02-26T07:06:47;45.59;41.14;51.42;;
45109;Laerm;30447;48.742;8.972;2024-02-26T07:09:14;46.57;41.96;53.44;;
45109;Laerm;30447;48.742;8.972;2024-02-26T07:11:41;46.07;41.14;57.82;;
45109;Laerm;30447;48.742;8.972;2024-02-26T07:14:09;46.40;40.89;55.79;;
45109;Laerm;30447;48.742;8.972;2024-02-26T07:16:36;46.30;41.14;58.87;;
45109;Laerm;30447;48.742;8.972;2024-02-26T07:19:04;44.24;40.23;58.00;;
45109;Laerm;30447;48.742;8.972;2024-02-26T07:21:30;46.96;40.98;56.83;;
45109;Laerm;30447;48.742;8.972;2024-02-26T07:23:57;48.23;42.65;56.89;;
45109;Laerm;30447;48.742;8.972;2024-02-26T07:26:24;45.39;41.06;53.92;;
45109;Laerm;30447;48.742;8.972;2024-02-26T07:28:52;43.83;39.81;55.10;;
45109;Laerm;30447;48.742;8.972;2024-02-26T07:31:19;43.26;40.43;51.64;;
45109;Laerm;30447;48.742;8.972;2024-02-26T07:33:45;43.00;39.70;51.37;;
45109;Laerm;30447;48.742;8.972;2024-02-26T07:36:12;44.92;39.08;63.22;;
45109;Laerm;30447;48.742;8.972;2024-02-26T07:38:39;45.82;39.21;57.54;;
45109;Laerm;30447;48.742;8.972;2024-02-26T07:41:06;46.16;40.71;55.50;;
45109;Laerm;30447;48.742;8.972;2024-02-26T07:43:32;45.64;40.33;55.05;;
45109;Laerm;30447;48.742;8.972;2024-02-26T07:45:59;46.72;40.89;56.20;;
45109;Laerm;30447;48.742;8.972;2024-02-26T07:48:26;47.19;41.14;55.56;;
45109;Laerm;30447;48.742;8.972;2024-02-26T07:50:52;43.19;40.33;50.76;;
45109;Laerm;30447;48.742;8.972;2024-02-26T07:53:19;42.68;39.34;51.20;;
45109;Laerm;30447;48.742;8.972;2024-02-26T07:55:46;42.73;39.34;48.34;;
45109;Laerm;30447;48.742;8.972;2024-02-26T07:58:12;43.30;38.67;60.55;;
45109;Laerm;30447;48.742;8.972;2024-02-26T08:00:39;43.78;38.95;55.42;;
45109;Laerm;30447;48.742;8.972;2024-02-26T08:03:05;43.38;39.70;53.67;;
45109;Laerm;30447;48.742;8.972;2024-02-26T08:05:32;43.18;39.58;59.52;;
45109;Laerm;30447;48.742;8.972;2024-02-26T08:07:59;41.55;37.88;53.93;;
45109;Laerm;30447;48.742;8.972;2024-02-26T08:10:25;41.38;37.70;52.28;;
45109;Laerm;30447;48.742;8.972;2024-02-26T08:12:52;41.27;37.35;53.99;;
45109;Laerm;30447;48.742;8.972;2024-02-26T08:15:18;41.40;36.45;50.04;;
45109;Laerm;30447;48.742;8.972;2024-02-26T08:17:45;41.14;36.91;52.28;;
45109;Laerm;30447;48.742;8.972;2024-02-26T08:20:14;41.24;37.70;51.10;;
45109;Laerm;30447;48.742;8.972;2024-02-26T08:22:40;41.00;37.12;56.36;;
45109;Laerm;30447;48.742;8.972;2024-02-26T08:25:07;41.36;37.32;53.02;;
45109;Laerm;30447;48.742;8.972;2024-02-26T08:27:35;41.57;36.69;54.65;;
45109;Laerm;30447;48.742;8.972;2024-02-26T08:30:02;40.72;36.45;54.35;;
45109;Laerm;30447;48.742;8.972;2024-02-26T08:32:29;40.96;37.12;49.21;;
45109;Laerm;30447;48.742;8.972;2024-02-26T08:34:55;40.92;37.12;47.30;;
45109;Laerm;30447;48.742;8.972;2024-02-26T08:37:22;40.82;36.69;54.21;;
45109;Laerm;30447;48.742;8.972;2024-02-26T08:39:49;41.02;36.69;51.49;;
45109;Laerm;30447;48.742;8.972;2024-02-26T08:42:15;40.25;36.45;48.64;;
45109;Laerm;30447;48.742;8.972;2024-02-26T08:44:42;40.42;36.45;44.47;;
45109;Laerm;30447;48.742;8.972;2024-02-26T08:47:08;46.68;38.05;70.61;;
45109;Laerm;30447;48.742;8.972;2024-02-26T08:49:35;40.05;35.94;50.85;;
45109;Laerm;30447;48.742;8.972;2024-02-26T08:52:02;39.83;36.20;46.76;;
45109;Laerm;30447;48.742;8.972;2024-02-26T08:54:30;40.51;35.36;49.70;;
45109;Laerm;30447;48.742;8.972;2024-02-26T08:56:57;39.77;36.20;53.21;;
45109;Laerm;30447;48.742;8.972;2024-02-26T08:59:24;39.85;35.66;50.92;;
45109;Laerm;30447;48.742;8.972;2024-02-26T09:01:51;39.75;35.66;46.91;;
45109;Laerm;30447;48.742;8.972;2024-02-26T09:04:17;42.00;35.66;54.33;;
45109;Laerm;30447;48.742;8.972;2024-02-26T09:06:44;41.77;34.69;53.70;;
45109;Laerm;30447;48.742;8.972;2024-02-26T09:09:10;48.83;38.37;61.46;;
45109;Laerm;30447;48.742;8.972;2024-02-26T09:11:37;42.53;36.20;53.70;;
45109;Laerm;30447;48.742;8.972;2024-02-26T09:14:04;39.59;35.66;46.95;;
45109;Laerm;30447;48.742;8.972;2024-02-26T09:16:30;41.41;35.36;47.00;;
45109;Laerm;30447;48.742;8.972;2024-02-26T09:18:57;41.74;35.04;55.73;;
45109;Laerm;30447;48.742;8.972;2024-02-26T09:21:24;39.36;35.36;53.41;;
45109;Laerm;30447;48.742;8.972;2024-02-26T09:23:51;43.49;35.66;60.86;;
45109;Laerm;30447;48.742;8.972;2024-02-26T09:26:17;40.22;35.66;51.93;;
45109;Laerm;30447;48.742;8.972;2024-02-26T09:28:44;39.77;35.94;55.16;;
45109;Laerm;30447;48.742;8.972;2024-02-26T09:31:11;43.08;35.36;56.69;;
45109;Laerm;30447;48.742;8.972;2024-02-26T09:33:38;53.53;35.94;70.94;;
45109;Laerm;30447;48.742;8.972;2024-02-26T09:36:04;39.40;35.66;43.63;;
45109;Laerm;30447;48.742;8.972;2024-02-26T09:38:32;39.50;35.94;48.37;;
45109;Laerm;30447;48.742;8.972;2024-02-26T09:41:05;45.42;35.66;66.42;;
45109;Laerm;30447;48.742;8.972;2024-02-26T09:43:35;49.85;35.94;64.99;;
45109;Laerm;30447;48.742;8.972;2024-02-26T09:46:03;39.45;35.94;46.02;;
45109;Laerm;30447;48.742;8.972;2024-02-26T09:48:33;39.78;34.69;50.46;;
45109;Laerm;30447;48.742;8.972;2024-02-26T09:51:02;41.16;35.36;54.51;;
45109;Laerm;30447;48.742;8.972;2024-02-26T09:53:31;40.03;35.36;49.90;;
45109;Laerm;30447;48.742;8.972;2024-02-26T09:55:58;40.37;36.20;47.86;;
45109;Laerm;30447;48.742;8.972;2024-02-26T09:58:28;39.88;35.36;47.54;;
45109;Laerm;30447;48.742;8.972;2024-02-26T10:01:00;40.31;35.04;49.97;;
45109;Laerm;30447;48.742;8.972;2024-02-26T10:03:35;43.03;35.66;52.38;;
45109;Laerm;30447;48.742;8.972;2024-02-26T10:06:04;41.31;35.36;49.88;;
45109;Laerm;30447;48.742;8.972;2024-02-26T10:08:33;41.20;35.94;49.69;;
45109;Laerm;30447;48.742;8.972;2024-02-26T10:11:00;40.28;34.31;46.45;;
45109;Laerm;30447;48.742;8.972;2024-02-26T10:13:27;39.33;35.04;44.11;;
45109;Laerm;30447;48.742;8.972;2024-02-26T10:15:54;39.48;35.94;43.63;;
45109;Laerm;30447;48.742;8.972;2024-02-26T10:18:23;39.33;35.36;45.23;;
45109;Laerm;30447;48.742;8.972;2024-02-26T10:21:00;39.42;35.04;55.69;;
45109;Laerm;30447;48.742;8.972;2024-02-26T10:23:27;41.09;35.66;56.71;;
45109;Laerm;30447;48.742;8.972;2024-02-26T10:25:55;45.85;35.94;67.54;;
45109;Laerm;30447;48.742;8.972;2024-02-26T10:28:22;40.52;35.66;46.05;;
45109;Laerm;30447;48.742;8.972;2024-02-26T10:30:51;39.97;35.36;46.28;;
45109;Laerm;30447;48.742;8.972;2024-02-26T10:33:19;39.13;34.31;42.93;;
45109;Laerm;30447;48.742;8.972;2024-02-26T10:35:47;43.21;35.66;51.06;;
45109;Laerm;30447;48.742;8.972;2024-02-26T10:38:14;40.52;35.66;47.88;;
45109;Laerm;30447;48.742;8.972;2024-02-26T10:40:43;39.22;34.69;48.92;;
45109;Laerm;30447;48.742;8.972;2024-02-26T10:43:10;39.71;34.31;50.01;;
45109;Laerm;30447;48.742;8.972;2024-02-26T10:45:36;42.09;35.66;65.19;;
45109;Laerm;30447;48.742;8.972;2024-02-26T10:48:03;40.50;35.66;46.45;;
45109;Laerm;30447;48.742;8.972;2024-02-26T10:50:30;40.84;35.94;56.86;;
45109;Laerm;30447;48.742;8.972;2024-02-26T10:52:58;44.84;37.52;56.33;;
45109;Laerm;30447;48.742;8.972;2024-02-26T10:55:27;39.63;35.66;47.26;;
45109;Laerm;30447;48.742;8.972;2024-02-26T10:57:56;40.08;35.66;46.87;;
45109;Laerm;30447;48.742;8.972;2024-02-26T11:00:23;40.31;35.04;46.64;;
45109;Laerm;30447;48.742;8.972;2024-02-26T11:02:52;40.14;35.94;52.98;;
45109;Laerm;30447;48.742;8.972;2024-02-26T11:05:20;46.16;35.59;61.78;;
45109;Laerm;30447;48.742;8.972;2024-02-26T11:07:50;40.29;34.31;55.11;;
45109;Laerm;30447;48.742;8.972;2024-02-26T11:10:18;40.92;35.04;57.68;;
45109;Laerm;30447;48.742;8.972;2024-02-26T11:12:46;38.87;34.69;44.87;;
45109;Laerm;30447;48.742;8.972;2024-02-26T11:15:15;40.52;35.66;51.36;;
45109;Laerm;30447;48.742;8.972;2024-02-26T11:17:44;42.14;35.36;64.60;;
45109;Laerm;30447;48.742;8.972;2024-02-26T11:20:13;39.56;35.36;50.36;;
45109;Laerm;30447;48.742;8.972;2024-02-26T11:22:41;40.16;35.36;57.14;;
45109;Laerm;30447;48.742;8.972;2024-02-26T11:25:08;39.35;34.69;48.37;;
45109;Laerm;30447;48.742;8.972;2024-02-26T11:27:51;38.93;34.31;45.27;;
45109;Laerm;30447;48.742;8.972;2024-02-26T11:30:22;39.76;35.04;54.02;;
45109;Laerm;30447;48.742;8.972;2024-02-26T11:32:50;39.06;32.93;52.06;;
45109;Laerm;30447;48.742;8.972;2024-02-26T11:35:19;38.33;33.44;50.24;;
45109;Laerm;30447;48.742;8.972;2024-02-26T11:37:54;38.69;33.44;47.00;;
45109;Laerm;30447;48.742;8.972;2024-02-26T11:40:26;39.07;34.69;48.46;;
45109;Laerm;30447;48.742;8.972;2024-02-26T11:42:54;38.61;33.44;44.07;;
45109;Laerm;30447;48.742;8.972;2024-02-26T11:48:14;42.13;35.04;65.55;;
45109;Laerm;30447;48.742;8.972;2024-02-26T11:50:46;39.56;35.04;51.75;;
45109;Laerm;30447;48.742;8.972;2024-02-26T11:53:27;38.50;34.31;45.42;;
45109;Laerm;30447;48.742;8.972;2024-02-26T11:59:08;39.02;32.93;51.88;;
45109;Laerm;30447;48.742;8.972;2024-02-26T12:01:45;40.33;35.36;53.72;;
45109;Laerm;30447;48.742;8.972;2024-02-26T12:04:25;40.58;36.69;54.83;;
45109;Laerm;30447;48.742;8.972;2024-02-26T12:06:57;40.43;35.94;56.93;;
45109;Laerm;30447;48.742;8.972;2024-02-26T12:09:34;44.30;35.36;56.39;;
45109;Laerm;30447;48.742;8.972;2024-02-26T12:12:09;42.66;36.20;52.06;;
45109;Laerm;30447;48.742;8.972;2024-02-26T12:14:52;40.22;35.36;51.05;;
45109;Laerm;30447;48.742;8.972;2024-02-26T12:17:22;39.29;35.04;47.95;;
45109;Laerm;30447;48.742;8.972;2024-02-26T12:19:50;38.78;34.31;45.83;;
45109;Laerm;30447;48.742;8.972;2024-02-26T12:22:18;39.72;34.69;53.89;;
45109;Laerm;30447;48.742;8.972;2024-02-26T12:24:45;40.55;35.36;48.10;;
45109;Laerm;30447;48.742;8.972;2024-02-26T12:27:12;40.54;35.36;46.33;;
45109;Laerm;30447;48.742;8.972;2024-02-26T12:29:39;39.15;34.31;48.70;;
45109;Laerm;30447;48.742;8.972;2024-02-26T12:32:07;38.55;34.69;42.09;;
45109;Laerm;30447;48.742;8.972;2024-02-26T12:34:33;38.64;33.44;44.31;;
45109;Laerm;30447;48.742;8.972;2024-02-26T12:37:01;38.96;33.90;48.05;;
45109;Laerm;30447;48.742;8.972;2024-02-26T12:39:28;39.94;34.31;48.76;;
45109;Laerm;30447;48.742;8.972;2024-02-26T12:41:57;40.01;35.04;46.97;;
45109;Laerm;30447;48.742;8.972;2024-02-26T12:44:26;38.58;34.69;42.29;;
45109;Laerm;30447;48.742;8.972;2024-02-26T12:47:03;38.91;34.31;45.51;;
45109;Laerm;30447;48.742;8.972;2024-02-26T12:49:31;41.61;36.45;46.66;;
45109;Laerm;30447;48.742;8.972;2024-02-26T12:51:57;38.94;33.44;43.14;;
45109;Laerm;30447;48.742;8.972;2024-02-26T12:54:33;40.50;35.04;46.76;;
45109;Laerm;30447;48.742;8.972;2024-02-26T12:57:04;39.57;35.36;43.49;;
45109;Laerm;30447;48.742;8.972;2024-02-26T12:59:35;39.24;33.90;43.39;;
45109;Laerm;30447;48.742;8.972;2024-02-26T13:02:04;39.15;34.69;44.87;;
45109;Laerm;30447;48.742;8.972;2024-02-26T13:04:31;40.37;35.94;47.59;;
45109;Laerm;30447;48.742;8.972;2024-02-26T13:06:58;40.72;35.66;52.08;;
45109;Laerm;30447;48.742;8.972;2024-02-26T13:09:33;39.18;34.69;41.89;;
45109;Laerm;30447;48.742;8.972;2024-02-26T13:12:08;39.37;33.44;43.14;;
45109;Laerm;30447;48.742;8.972;2024-02-26T13:14:35;38.80;35.04;45.23;;
45109;Laerm;30447;48.742;8.972;2024-02-26T13:17:03;40.62;35.66;55.44;;
45109;Laerm;30447;48.742;8.972;2024-02-26T13:19:30;39.79;36.20;45.54;;
45109;Laerm;30447;48.742;8.972;2024-02-26T13:22:04;38.84;34.69;43.54;;
45109;Laerm;30447;48.742;8.972;2024-02-26T13:24:36;39.60;34.69;44.65;;
45109;Laerm;30447;48.742;8.972;2024-02-26T13:27:03;40.45;34.69;45.01;;
45109;Laerm;30447;48.742;8.972;2024-02-26T13:29:31;39.07;34.31;47.70;;
45109;Laerm;30447;48.742;8.972;2024-02-26T13:31:58;38.85;35.36;50.42;;
45109;Laerm;30447;48.742;8.972;2024-02-26T13:34:27;39.02;34.34;43.58;;
45109;Laerm;30447;48.742;8.972;2024-02-26T13:36:54;39.15;34.69;50.97;;
45109;Laerm;30447;48.742;8.972;2024-02-26T13:39:27;40.85;35.04;50.27;;
45109;Laerm;30447;48.742;8.972;2024-02-26T13:41:54;43.33;34.69;58.64;;
45109;Laerm;30447;48.742;8.972;2024-02-26T13:44:21;40.37;34.31;51.10;;
45109;Laerm;30447;48.742;8.972;2024-02-26T13:46:48;39.72;35.66;51.33;;
45109;Laerm;30447;48.742;8.972;2024-02-26T13:49:16;39.46;35.04;47.73;;
45109;Laerm;30447;48.742;8.972;2024-02-26T13:51:42;39.19;34.31;45.54;;